createdAt,value
2023-04-08T00:02:06.634Z,5.54
2023-04-08T00:04:34.559Z,5.55
2023-04-08T00:07:02.433Z,5.36
2023-04-08T00:09:30.272Z,5.29
2023-04-08T00:11:58.303Z,5.29
2023-04-08T00:14:26.051Z,5.29
2023-04-08T00:16:53.929Z,5.32
2023-04-08T00:19:23.158Z,5.33
2023-04-08T00:21:51.184Z,5.23
2023-04-08T00:24:19.580Z,5.33
2023-04-08T00:26:47.480Z,5.30
2023-04-08T00:29:15.385Z,5.23
2023-04-08T00:31:43.766Z,5.30
2023-04-08T00:34:11.575Z,5.21
2023-04-08T00:36:40.738Z,5.24
2023-04-08T00:39:08.573Z,5.28
2023-04-08T00:41:36.458Z,5.13
2023-04-08T00:44:04.241Z,5.09
2023-04-08T00:46:37.133Z,5.11
2023-04-08T00:49:05.411Z,5.05
2023-04-08T00:51:33.228Z,5.05
2023-04-08T00:54:02.387Z,5.02
2023-04-08T00:56:30.231Z,4.94
2023-04-08T00:58:59.910Z,4.75
2023-04-08T01:01:34.832Z,4.76
2023-04-08T01:04:09.186Z,4.68
2023-04-08T01:06:42.485Z,4.68
2023-04-08T01:09:13.329Z,4.78
2023-04-08T01:11:45.639Z,4.68
2023-04-08T01:14:18.576Z,4.68
2023-04-08T01:16:47.591Z,4.70
2023-04-08T01:19:30.267Z,4.67
2023-04-08T01:22:06.674Z,4.64
2023-04-08T01:24:40.190Z,4.58
2023-04-08T01:27:13.478Z,4.70
2023-04-08T01:29:43.018Z,4.59
2023-04-08T01:32:12.192Z,4.76
2023-04-08T01:34:42.794Z,4.72
2023-04-08T01:37:11.142Z,4.65
2023-04-08T01:39:42.505Z,4.59
2023-04-08T01:42:13.682Z,4.66
2023-04-08T01:44:42.363Z,4.66
2023-04-08T01:47:11.557Z,4.69
2023-04-08T01:49:40.424Z,4.78
2023-04-08T01:52:10.372Z,4.65
2023-04-08T01:54:39.054Z,4.66
2023-04-08T01:57:13.192Z,4.50
2023-04-08T01:59:44.306Z,4.50
2023-04-08T02:02:13.275Z,4.52
2023-04-08T02:04:41.465Z,4.52
2023-04-08T02:07:09.722Z,4.44
2023-04-08T02:09:37.502Z,4.45
2023-04-08T02:12:05.728Z,4.41
2023-04-08T02:14:33.663Z,4.47
2023-04-08T02:17:09.909Z,4.45
2023-04-08T02:19:45.566Z,4.41
2023-04-08T02:22:21.248Z,4.48
2023-04-08T02:24:50.461Z,4.48
2023-04-08T02:27:19.596Z,4.57
2023-04-08T02:29:50.574Z,4.62
2023-04-08T02:32:20.298Z,4.55
2023-04-08T02:34:49.138Z,4.60
2023-04-08T02:37:17.142Z,4.51
2023-04-08T02:39:45.074Z,4.55
2023-04-08T02:42:13.227Z,4.44
2023-04-08T02:44:41.041Z,4.50
2023-04-08T02:47:08.868Z,4.52
2023-04-08T02:49:38.033Z,4.61
2023-04-08T02:52:05.864Z,4.41
2023-04-08T02:54:33.813Z,4.44
2023-04-08T02:57:01.716Z,4.56
2023-04-08T02:59:29.487Z,4.54
2023-04-08T03:01:57.585Z,4.48
2023-04-08T03:04:25.486Z,4.45
2023-04-08T03:06:54.618Z,4.49
2023-04-08T03:09:22.364Z,4.50
2023-04-08T03:11:53.142Z,4.52
2023-04-08T03:14:21.698Z,4.56
2023-04-08T03:16:49.526Z,4.59
2023-04-08T03:19:17.471Z,4.52
2023-04-08T03:21:45.273Z,4.49
2023-04-08T03:24:14.393Z,4.55
2023-04-08T03:26:42.135Z,4.52
2023-04-08T03:29:10.130Z,4.56
2023-04-08T03:31:38.071Z,4.44
2023-04-08T03:34:06.109Z,4.44
2023-04-08T03:36:33.860Z,4.43
2023-04-08T03:39:03.701Z,4.49
2023-04-08T03:41:32.842Z,4.49
2023-04-08T03:44:00.634Z,4.64
2023-04-08T03:46:28.654Z,4.70
2023-04-08T03:48:56.434Z,4.77
2023-04-08T03:51:24.243Z,4.77
2023-04-08T03:53:52.069Z,4.93
2023-04-08T03:56:19.876Z,5.00
2023-04-08T03:58:49.315Z,4.99
2023-04-08T04:01:17.906Z,4.98
2023-04-08T04:03:45.979Z,4.90
2023-04-08T04:06:14.012Z,4.94
2023-04-08T04:08:41.799Z,5.02
2023-04-08T04:11:09.588Z,4.88
2023-04-08T04:13:37.398Z,4.74
2023-04-08T04:16:06.972Z,4.75
2023-04-08T04:18:34.882Z,4.78
2023-04-08T04:21:06.580Z,4.78
2023-04-08T04:23:34.422Z,4.79
2023-04-08T04:26:02.315Z,4.77
2023-04-08T04:28:30.268Z,4.69
2023-04-08T04:30:58.097Z,4.77
2023-04-08T04:33:27.250Z,4.88
2023-04-08T04:35:55.056Z,4.85
2023-04-08T04:38:24.033Z,4.92
2023-04-08T04:40:51.843Z,5.22
2023-04-08T04:43:19.624Z,5.21
2023-04-08T04:45:47.446Z,5.35
2023-04-08T04:48:15.516Z,5.32
2023-04-08T04:50:44.647Z,5.28
2023-04-08T04:53:12.428Z,5.16
2023-04-08T04:55:40.363Z,5.16
2023-04-08T04:58:08.153Z,5.42
2023-04-08T05:00:36.329Z,5.57
2023-04-08T05:03:04.244Z,5.48
2023-04-08T05:05:32.213Z,5.62
2023-04-08T05:08:01.413Z,5.62
2023-04-08T05:10:29.281Z,5.59
2023-04-08T05:12:57.114Z,5.75
2023-04-08T05:15:25.331Z,5.75
2023-04-08T05:17:53.192Z,5.73
2023-04-08T05:20:21.050Z,5.46
2023-04-08T05:22:48.798Z,5.42
2023-04-08T05:25:17.925Z,5.52
2023-04-08T05:27:45.663Z,5.50
2023-04-08T05:30:14.265Z,5.55
2023-04-08T05:32:42.038Z,5.62
2023-04-08T05:35:10.806Z,5.77
2023-04-08T05:37:38.568Z,5.75
2023-04-08T05:40:07.646Z,5.85
2023-04-08T05:42:36.879Z,5.95
2023-04-08T05:45:05.471Z,6.20
2023-04-08T05:47:34.150Z,6.23
2023-04-08T05:50:01.962Z,6.30
2023-04-08T05:52:29.799Z,6.31
2023-04-08T05:54:57.574Z,6.40
2023-04-08T05:57:25.419Z,7.45
2023-04-08T05:59:54.550Z,7.74
2023-04-08T06:02:22.498Z,8.06
2023-04-08T06:04:50.386Z,7.60
2023-04-08T06:07:18.288Z,7.52
2023-04-08T06:09:46.073Z,7.16
2023-04-08T06:12:13.875Z,7.53
2023-04-08T06:14:41.650Z,7.26
2023-04-08T06:17:10.850Z,7.67
2023-04-08T06:19:38.645Z,7.70
2023-04-08T06:22:06.377Z,7.43
2023-04-08T06:24:34.147Z,7.56
2023-04-08T06:27:02.948Z,7.24
2023-04-08T06:29:31.310Z,7.32
2023-04-08T06:31:59.129Z,7.70
2023-04-08T06:34:28.357Z,7.26
2023-04-08T06:36:56.529Z,7.22
2023-04-08T06:39:24.555Z,7.03
2023-04-08T06:41:52.372Z,7.60
2023-04-08T06:44:33.386Z,7.19
2023-04-08T06:47:01.161Z,7.34
2023-04-08T06:49:30.310Z,7.18
2023-04-08T06:51:58.193Z,7.06
2023-04-08T06:54:26.147Z,6.80
2023-04-08T06:56:53.905Z,6.51
2023-04-08T06:59:21.660Z,6.39
2023-04-08T07:01:49.526Z,6.41
2023-04-08T07:04:17.608Z,6.36
2023-04-08T07:06:46.850Z,6.48
2023-04-08T07:09:14.591Z,6.49
2023-04-08T07:11:42.344Z,6.55
2023-04-08T07:14:10.240Z,6.48
2023-04-08T07:16:38.121Z,6.45
2023-04-08T07:19:06.593Z,6.47
2023-04-08T07:21:34.384Z,6.49
2023-04-08T07:24:03.549Z,6.48
2023-04-08T07:26:31.288Z,6.46
2023-04-08T07:28:59.039Z,6.66
2023-04-08T07:31:27.181Z,6.53
2023-04-08T07:33:55.079Z,6.57
2023-04-08T07:36:22.837Z,6.52
2023-04-08T07:38:50.773Z,6.55
2023-04-08T07:41:20.088Z,6.47
2023-04-08T07:43:48.066Z,6.37
2023-04-08T07:46:16.099Z,6.40
2023-04-08T07:48:44.027Z,6.48
2023-04-08T07:51:11.872Z,6.37
2023-04-08T07:53:40.770Z,6.31
2023-04-08T07:56:12.929Z,6.30
2023-04-08T07:58:42.452Z,6.25
2023-04-08T08:01:17.923Z,6.15
2023-04-08T08:03:46.065Z,6.03
2023-04-08T08:06:14.091Z,5.86
2023-04-08T08:08:41.850Z,5.97
2023-04-08T08:11:09.698Z,6.00
2023-04-08T08:13:37.487Z,6.23
2023-04-08T08:16:09.206Z,6.17
2023-04-08T08:18:37.222Z,6.38
2023-04-08T08:21:05.036Z,6.26
2023-04-08T08:23:32.856Z,6.20
2023-04-08T08:26:01.833Z,6.14
2023-04-08T08:28:30.073Z,6.27
2023-04-08T08:30:57.928Z,6.18
2023-04-08T08:33:27.220Z,6.06
2023-04-08T08:35:55.480Z,5.82
2023-04-08T08:38:23.269Z,5.77
2023-04-08T08:40:56.140Z,5.80
2023-04-08T08:43:24.142Z,5.69
2023-04-08T08:45:52.210Z,5.70
2023-04-08T08:48:20.568Z,5.60
2023-04-08T08:50:51.157Z,5.52
2023-04-08T08:53:19.713Z,5.63
2023-04-08T08:58:18.243Z,5.55
2023-04-08T09:00:46.387Z,5.70
2023-04-08T09:03:18.949Z,5.83
2023-04-08T09:05:53.406Z,5.76
2023-04-08T09:08:29.735Z,5.51
2023-04-08T09:11:11.412Z,5.31
2023-04-08T09:13:39.611Z,5.20
2023-04-08T09:16:10.122Z,5.05
2023-04-08T09:18:38.850Z,4.93
2023-04-08T09:21:08.604Z,4.92
2023-04-08T09:23:44.169Z,4.90
2023-04-08T09:26:13.684Z,4.69
2023-04-08T09:28:42.596Z,4.58
2023-04-08T09:31:23.972Z,4.74
2023-04-08T09:33:53.841Z,4.84
2023-04-08T09:36:23.234Z,4.85
2023-04-08T09:38:51.319Z,4.87
2023-04-08T09:41:23.440Z,4.77
2023-04-08T09:43:52.746Z,4.57
2023-04-08T09:46:28.143Z,4.52
2023-04-08T09:49:06.307Z,4.60
2023-04-08T09:51:41.550Z,4.60
2023-04-08T09:54:15.675Z,4.68
2023-04-08T09:56:48.871Z,4.67
2023-04-08T09:59:21.814Z,4.83
2023-04-08T10:01:54.971Z,4.78
2023-04-08T10:04:25.532Z,4.91
2023-04-08T10:07:00.990Z,4.95
2023-04-08T10:09:29.706Z,5.12
2023-04-08T10:11:57.558Z,5.14
2023-04-08T10:14:28.654Z,5.35
2023-04-08T10:17:25.197Z,5.52
2023-04-08T10:19:53.078Z,5.86
2023-04-08T10:22:50.392Z,6.07
2023-04-08T10:25:32.326Z,6.45
2023-04-08T10:28:00.785Z,6.70
2023-04-08T10:30:42.405Z,6.78
2023-04-08T10:33:12.586Z,7.08
2023-04-08T10:35:48.572Z,7.00
2023-04-08T10:38:18.402Z,6.89
2023-04-08T10:40:46.779Z,6.92
2023-04-08T10:43:16.006Z,7.14
2023-04-08T10:45:47.959Z,6.97
2023-04-08T10:48:18.781Z,6.90
2023-04-08T10:50:54.103Z,6.87
2023-04-08T10:53:28.007Z,6.94
2023-04-08T10:55:56.097Z,6.92
2023-04-08T10:58:23.938Z,7.16
2023-04-08T11:00:51.860Z,6.82
2023-04-08T11:03:20.650Z,6.59
2023-04-08T11:05:51.725Z,6.49
2023-04-08T11:08:21.062Z,6.40
2023-04-08T11:10:51.616Z,6.33
2023-04-08T11:13:19.515Z,6.26
2023-04-08T11:15:47.765Z,6.26
2023-04-08T11:18:16.476Z,6.08
2023-04-08T11:20:45.514Z,6.01
2023-04-08T11:23:14.768Z,5.80
2023-04-08T11:25:43.721Z,5.85
2023-04-08T11:28:13.352Z,5.72
2023-04-08T11:30:42.233Z,5.77
2023-04-08T11:33:10.298Z,5.77
2023-04-08T11:35:41.695Z,5.72
2023-04-08T11:38:09.583Z,5.70
2023-04-08T11:40:37.849Z,5.79
2023-04-08T11:43:12.274Z,5.73
2023-04-08T11:45:41.478Z,5.67
2023-04-08T11:48:13.956Z,5.58
2023-04-08T11:50:42.670Z,5.53
2023-04-08T11:53:19.652Z,5.52
2023-04-08T11:55:48.553Z,5.48
2023-04-08T11:58:18.109Z,5.54
2023-04-08T12:00:46.672Z,5.58
2023-04-08T12:03:14.486Z,5.55
2023-04-08T12:05:42.606Z,5.55
2023-04-08T12:08:10.509Z,5.58
2023-04-08T12:10:38.780Z,5.45
2023-04-08T12:13:06.790Z,5.32
2023-04-08T12:15:35.926Z,5.39
2023-04-08T12:18:03.834Z,5.25
2023-04-08T12:20:31.659Z,5.25
2023-04-08T12:22:59.734Z,5.19
2023-04-08T12:25:31.329Z,5.18
2023-04-08T12:27:59.213Z,5.19
2023-04-08T12:30:28.778Z,5.12
2023-04-08T12:32:58.245Z,5.13
2023-04-08T12:35:26.224Z,5.10
2023-04-08T12:37:56.171Z,5.12
2023-04-08T12:40:24.326Z,5.14
2023-04-08T12:42:54.977Z,5.15
2023-04-08T12:45:23.276Z,5.08
2023-04-08T12:47:51.651Z,5.03
2023-04-08T12:50:20.963Z,5.12
2023-04-08T12:52:49.261Z,5.05
2023-04-08T12:55:18.383Z,5.00
2023-04-08T12:57:46.759Z,5.11
2023-04-08T13:00:15.643Z,5.29
2023-04-08T13:02:44.355Z,5.09
2023-04-08T13:05:12.592Z,5.11
2023-04-08T13:07:42.038Z,5.09
2023-04-08T13:10:10.434Z,4.85
2023-04-08T13:12:40.190Z,4.98
2023-04-08T13:15:09.792Z,4.85
2023-04-08T13:17:38.054Z,4.84
2023-04-08T13:20:08.500Z,4.72
2023-04-08T13:22:36.319Z,4.80
2023-04-08T13:25:07.241Z,4.86
2023-04-08T13:27:35.310Z,4.70
2023-04-08T13:30:03.404Z,4.70
2023-04-08T13:32:31.205Z,4.76
2023-04-08T13:34:59.604Z,4.80
2023-04-08T13:37:28.563Z,4.75
2023-04-08T13:39:56.965Z,4.80
2023-04-08T13:42:27.113Z,4.82
2023-04-08T13:44:55.398Z,4.68
2023-04-08T13:47:23.611Z,4.56
2023-04-08T13:49:54.205Z,4.52
2023-04-08T13:52:22.439Z,4.58
2023-04-08T13:54:50.206Z,4.46
2023-04-08T13:57:18.394Z,4.48
2023-04-08T13:59:47.531Z,4.59
2023-04-08T14:02:15.636Z,4.52
2023-04-08T14:04:45.853Z,4.53
2023-04-08T14:07:14.127Z,4.44
2023-04-08T14:09:42.375Z,4.29
2023-04-08T14:12:10.406Z,4.32
2023-04-08T14:14:40.744Z,4.43
2023-04-08T14:17:10.221Z,4.35
2023-04-08T14:19:38.123Z,4.36
2023-04-08T14:22:05.967Z,4.35
2023-04-08T14:24:34.408Z,4.30
2023-04-08T14:27:02.441Z,4.27
2023-04-08T14:29:30.412Z,4.30
2023-04-08T14:31:58.444Z,4.32
2023-04-08T14:34:27.684Z,4.39
2023-04-08T14:36:55.723Z,4.34
2023-04-08T14:39:23.613Z,4.40
2023-04-08T14:41:51.706Z,4.59
2023-04-08T14:44:19.713Z,4.64
2023-04-08T14:46:48.087Z,4.82
2023-04-08T14:49:16.022Z,4.94
2023-04-08T14:51:45.816Z,4.92
2023-04-08T14:54:14.174Z,4.94
2023-04-08T14:56:42.005Z,4.96
2023-04-08T14:59:10.565Z,5.15
2023-04-08T15:01:38.632Z,5.28
2023-04-08T15:04:06.910Z,5.18
2023-04-08T15:06:35.270Z,5.14
2023-04-08T15:09:04.857Z,5.08
2023-04-08T15:11:35.726Z,5.17
2023-04-08T15:14:03.504Z,5.28
2023-04-08T15:16:31.347Z,5.21
2023-04-08T15:19:00.404Z,5.13
2023-04-08T15:21:36.025Z,5.09
2023-04-08T15:24:05.326Z,5.07
2023-04-08T15:26:33.355Z,4.98
2023-04-08T15:29:01.519Z,4.92
2023-04-08T15:31:29.585Z,4.90
2023-04-08T15:33:58.406Z,4.92
2023-04-08T15:36:26.593Z,4.82
2023-04-08T15:38:54.544Z,4.85
2023-04-08T15:41:23.995Z,4.92
2023-04-08T15:43:53.943Z,4.92
2023-04-08T15:46:22.344Z,4.94
2023-04-08T15:48:51.324Z,4.91
2023-04-08T15:51:20.309Z,4.92
2023-04-08T15:53:50.408Z,4.87
2023-04-08T15:56:19.057Z,4.86
2023-04-08T15:58:48.357Z,4.84
2023-04-08T16:01:16.982Z,4.81
2023-04-08T16:03:45.019Z,4.80
2023-04-08T16:06:13.062Z,4.73
2023-04-08T16:08:44.722Z,4.73
2023-04-08T16:11:12.600Z,4.83
2023-04-08T16:13:42.558Z,4.76
2023-04-08T16:16:12.346Z,4.75
2023-04-08T16:18:41.658Z,4.76
2023-04-08T16:21:09.644Z,4.70
2023-04-08T16:23:38.197Z,4.81
2023-04-08T16:26:09.265Z,4.78
2023-04-08T16:28:39.496Z,4.71
2023-04-08T16:31:07.619Z,4.72
2023-04-08T16:33:37.317Z,4.61
2023-04-08T16:36:05.814Z,4.65
2023-04-08T16:38:34.108Z,4.55
2023-04-08T16:41:03.530Z,4.49
2023-04-08T16:43:34.303Z,4.48
2023-04-08T16:46:11.024Z,4.50
2023-04-08T16:48:41.883Z,4.54
2023-04-08T16:51:10.127Z,4.59
2023-04-08T16:53:38.251Z,4.62
2023-04-08T16:56:07.336Z,4.63
2023-04-08T16:58:35.370Z,4.65
2023-04-08T17:01:03.168Z,4.70
2023-04-08T17:03:32.356Z,4.73
2023-04-08T17:06:08.478Z,4.72
2023-04-08T17:08:36.639Z,4.76
2023-04-08T17:11:10.035Z,4.75
2023-04-08T17:13:41.983Z,4.77
2023-04-08T17:16:13.609Z,4.91
2023-04-08T17:18:47.911Z,4.89
2023-04-08T17:21:17.384Z,4.85
2023-04-08T17:23:45.407Z,4.83
2023-04-08T17:26:14.042Z,4.77
2023-04-08T17:28:43.125Z,4.78
2023-04-08T17:31:11.245Z,4.76
2023-04-08T17:33:41.737Z,4.69
2023-04-08T17:36:09.603Z,4.77
2023-04-08T17:38:40.070Z,4.72
2023-04-08T17:41:09.889Z,4.73
2023-04-08T17:43:37.893Z,4.65
2023-04-08T17:46:08.457Z,4.70
2023-04-08T17:48:36.491Z,4.72
2023-04-08T17:51:06.315Z,4.71
2023-04-08T17:53:34.861Z,4.76
2023-04-08T17:56:05.432Z,4.77
2023-04-08T17:58:36.369Z,4.74
2023-04-08T18:01:04.380Z,4.75
2023-04-08T18:03:34.007Z,4.75
2023-04-08T18:06:02.029Z,4.77
2023-04-08T18:08:30.054Z,4.80
2023-04-08T18:10:59.840Z,4.75
2023-04-08T18:13:29.053Z,4.75
2023-04-08T18:15:56.811Z,4.75
2023-04-08T18:18:25.023Z,4.72
2023-04-08T18:20:52.795Z,4.68
2023-04-08T18:23:20.541Z,4.68
2023-04-08T18:25:50.021Z,4.63
2023-04-08T18:28:17.869Z,4.59
2023-04-08T18:30:51.897Z,4.61
2023-04-08T18:33:19.862Z,4.62
2023-04-08T18:35:47.876Z,4.59
2023-04-08T18:38:16.122Z,4.58
2023-04-08T18:40:45.686Z,4.58
2023-04-08T18:43:13.704Z,4.53
2023-04-08T18:45:41.867Z,4.54
2023-04-08T18:48:12.278Z,4.55
2023-04-08T18:50:40.186Z,4.56
2023-04-08T18:53:08.124Z,4.56
2023-04-08T18:55:38.693Z,4.56
2023-04-08T18:58:06.538Z,4.56
2023-04-08T19:00:34.384Z,4.55
2023-04-08T19:03:03.422Z,4.58
2023-04-08T19:05:33.359Z,4.65
2023-04-08T19:08:01.866Z,4.63
2023-04-08T19:10:30.941Z,4.67
2023-04-08T19:12:59.338Z,4.65
2023-04-08T19:15:28.727Z,4.67
2023-04-08T19:17:57.263Z,4.69
2023-04-08T19:20:25.229Z,4.66
2023-04-08T19:22:55.829Z,4.69
2023-04-08T19:25:23.660Z,4.67
2023-04-08T19:27:51.426Z,4.66
2023-04-08T19:30:19.359Z,4.65
2023-04-08T19:32:48.675Z,4.64
2023-04-08T19:35:16.583Z,4.68
2023-04-08T19:37:44.403Z,4.70
2023-04-08T19:40:13.721Z,4.73
2023-04-08T19:42:41.565Z,4.71
2023-04-08T19:45:10.855Z,4.66
2023-04-08T19:47:39.725Z,4.69
2023-04-08T19:50:09.087Z,4.63
2023-04-08T19:52:39.308Z,4.65
2023-04-08T19:55:07.776Z,4.68
2023-04-08T19:57:37.160Z,4.67
2023-04-08T20:00:05.563Z,4.65
2023-04-08T20:02:34.613Z,4.70
2023-04-08T20:05:03.123Z,4.70
2023-04-08T20:07:30.976Z,4.69
2023-04-08T20:09:58.701Z,4.76
2023-04-08T20:12:26.843Z,4.76
2023-04-08T20:14:56.122Z,4.79
2023-04-08T20:17:24.034Z,4.79
2023-04-08T20:19:51.924Z,4.87
2023-04-08T20:22:19.777Z,4.87
2023-04-08T20:24:49.317Z,4.85
2023-04-08T20:27:18.993Z,4.85
2023-04-08T20:29:47.427Z,4.84
2023-04-08T20:32:16.998Z,4.96
2023-04-08T20:34:44.793Z,4.90
2023-04-08T20:37:12.812Z,4.84
2023-04-08T20:39:41.081Z,4.79
2023-04-08T20:42:09.676Z,4.77
2023-04-08T20:44:37.556Z,4.73
2023-04-08T20:47:05.557Z,4.72
2023-04-08T20:49:35.411Z,4.65
2023-04-08T20:52:03.184Z,4.70
2023-04-08T20:54:31.673Z,4.69
2023-04-08T20:56:59.681Z,4.67
2023-04-08T20:59:28.207Z,4.70
2023-04-08T21:01:56.096Z,4.67
2023-04-08T21:04:24.490Z,4.68
2023-04-08T21:06:53.668Z,4.63
2023-04-08T21:09:21.638Z,4.59
2023-04-08T21:11:49.837Z,4.58
2023-04-08T21:14:18.431Z,4.57
2023-04-08T21:16:46.541Z,4.50
2023-04-08T21:19:16.464Z,4.55
2023-04-08T21:21:46.100Z,4.57
2023-04-08T21:24:15.467Z,4.53
2023-04-08T21:26:43.246Z,4.54
2023-04-08T21:29:11.480Z,4.57
2023-04-08T21:31:39.792Z,4.50
2023-04-08T21:34:07.566Z,4.48
2023-04-08T21:36:37.386Z,4.52
2023-04-08T21:39:05.221Z,4.52
2023-04-08T21:41:34.679Z,4.52
2023-04-08T21:44:02.969Z,4.53
2023-04-08T21:46:30.988Z,4.56
2023-04-08T21:48:58.779Z,4.56
2023-04-08T21:51:26.609Z,4.59
2023-04-08T21:53:54.447Z,4.68
2023-04-08T21:56:22.340Z,4.83
2023-04-08T21:58:52.299Z,4.91
2023-04-08T22:01:20.606Z,4.94
2023-04-08T22:03:48.445Z,7.08
2023-04-08T22:06:29.112Z,9.33
2023-04-08T22:08:59.282Z,9.35
2023-04-08T22:11:27.055Z,7.79
2023-04-08T22:13:56.232Z,6.83
2023-04-08T22:16:24.043Z,6.14
2023-04-08T22:18:52.059Z,5.72
2023-04-08T22:21:19.955Z,5.52
2023-04-08T22:23:50.703Z,5.36
2023-04-08T22:26:18.553Z,5.28
2023-04-08T22:28:46.544Z,5.34
2023-04-08T22:31:15.794Z,5.24
2023-04-08T22:33:43.878Z,5.13
2023-04-08T22:36:11.787Z,5.19
2023-04-08T22:38:39.667Z,5.11
2023-04-08T22:41:07.504Z,5.22
2023-04-08T22:43:35.584Z,5.21
2023-04-08T22:46:03.363Z,5.26
2023-04-08T22:48:32.804Z,5.29
2023-04-08T22:51:01.029Z,5.33
2023-04-08T22:53:28.758Z,5.26
2023-04-08T22:55:56.541Z,5.17
2023-04-08T22:58:24.326Z,5.19
2023-04-08T23:00:52.091Z,5.13
2023-04-08T23:03:20.136Z,5.01
2023-04-08T23:05:49.463Z,5.08
2023-04-08T23:08:17.408Z,5.20
2023-04-08T23:10:45.280Z,5.24
2023-04-08T23:13:14.002Z,5.19
2023-04-08T23:15:41.953Z,5.14
2023-04-08T23:18:09.725Z,5.06
2023-04-08T23:20:37.481Z,4.98
2023-04-08T23:23:06.766Z,4.89
2023-04-08T23:25:36.083Z,4.82
2023-04-08T23:28:03.976Z,4.77
2023-04-08T23:30:31.753Z,4.64
2023-04-08T23:32:59.520Z,4.52
2023-04-08T23:35:27.326Z,4.40
2023-04-08T23:37:55.152Z,4.34
2023-04-08T23:40:24.259Z,4.39
2023-04-08T23:42:52.217Z,4.36
2023-04-08T23:45:20.025Z,4.37
2023-04-08T23:47:47.822Z,4.47
2023-04-08T23:50:15.652Z,4.43
2023-04-08T23:52:43.423Z,4.40
2023-04-08T23:55:11.574Z,4.36
2023-04-08T23:57:42.908Z,4.36
